sensor_id;sensor_type;location;lat;lon;timestamp;P1;durP1;ratioP1;P2;durP2;ratioP2
44228;SDS011;29904;51.058;5.378;2023-08-01T00:02:21;1.08;;;0.30;;
44228;SDS011;29904;51.058;5.378;2023-08-01T00:04:46;0.80;;;0.30;;
44228;SDS011;29904;51.058;5.378;2023-08-01T00:07:12;2.20;;;0.50;;
44228;SDS011;29904;51.058;5.378;2023-08-01T00:09:38;1.02;;;0.40;;
44228;SDS011;29904;51.058;5.378;2023-08-01T00:12:03;0.63;;;0.47;;
44228;SDS011;29904;51.058;5.378;2023-08-01T00:14:29;1.10;;;0.40;;
44228;SDS011;29904;51.058;5.378;2023-08-01T00:16:55;1.17;;;0.50;;
44228;SDS011;29904;51.058;5.378;2023-08-01T00:19:21;1.10;;;0.50;;
44228;SDS011;29904;51.058;5.378;2023-08-01T00:21:46;3.67;;;0.70;;
44228;SDS011;29904;51.058;5.378;2023-08-01T00:24:12;1.98;;;0.60;;
44228;SDS011;29904;51.058;5.378;2023-08-01T00:26:38;1.63;;;0.80;;
44228;SDS011;29904;51.058;5.378;2023-08-01T00:29:04;2.17;;;0.70;;
44228;SDS011;29904;51.058;5.378;2023-08-01T00:31:29;2.30;;;0.60;;
44228;SDS011;29904;51.058;5.378;2023-08-01T00:33:55;1.40;;;0.60;;
44228;SDS011;29904;51.058;5.378;2023-08-01T00:36:21;1.53;;;0.70;;
44228;SDS011;29904;51.058;5.378;2023-08-01T00:38:46;2.00;;;0.60;;
44228;SDS011;29904;51.058;5.378;2023-08-01T00:41:13;3.33;;;0.80;;
44228;SDS011;29904;51.058;5.378;2023-08-01T00:43:39;1.25;;;0.77;;
44228;SDS011;29904;51.058;5.378;2023-08-01T00:46:05;2.27;;;0.70;;
44228;SDS011;29904;51.058;5.378;2023-08-01T00:48:33;1.33;;;0.68;;
44228;SDS011;29904;51.058;5.378;2023-08-01T00:50:59;0.93;;;0.60;;
44228;SDS011;29904;51.058;5.378;2023-08-01T00:53:28;2.53;;;0.88;;
44228;SDS011;29904;51.058;5.378;2023-08-01T00:55:54;1.65;;;0.80;;
44228;SDS011;29904;51.058;5.378;2023-08-01T00:58:21;1.88;;;0.98;;
44228;SDS011;29904;51.058;5.378;2023-08-01T01:00:47;1.70;;;0.82;;
44228;SDS011;29904;51.058;5.378;2023-08-01T01:03:13;2.75;;;1.10;;
44228;SDS011;29904;51.058;5.378;2023-08-01T01:05:41;2.95;;;0.95;;
44228;SDS011;29904;51.058;5.378;2023-08-01T01:08:13;1.63;;;0.80;;
44228;SDS011;29904;51.058;5.378;2023-08-01T01:10:39;2.00;;;1.00;;
44228;SDS011;29904;51.058;5.378;2023-08-01T01:13:04;2.30;;;0.90;;
44228;SDS011;29904;51.058;5.378;2023-08-01T01:15:30;2.65;;;0.98;;
44228;SDS011;29904;51.058;5.378;2023-08-01T01:17:56;1.70;;;1.10;;
44228;SDS011;29904;51.058;5.378;2023-08-01T01:20:25;4.72;;;1.60;;
44228;SDS011;29904;51.058;5.378;2023-08-01T01:22:54;3.78;;;1.65;;
44228;SDS011;29904;51.058;5.378;2023-08-01T01:25:21;3.63;;;1.88;;
44228;SDS011;29904;51.058;5.378;2023-08-01T01:27:49;2.80;;;1.60;;
44228;SDS011;29904;51.058;5.378;2023-08-01T01:30:16;6.07;;;2.10;;
44228;SDS011;29904;51.058;5.378;2023-08-01T01:32:43;4.32;;;2.08;;
44228;SDS011;29904;51.058;5.378;2023-08-01T01:35:09;3.95;;;1.90;;
44228;SDS011;29904;51.058;5.378;2023-08-01T01:37:35;3.00;;;1.93;;
44228;SDS011;29904;51.058;5.378;2023-08-01T01:40:01;5.47;;;2.10;;
44228;SDS011;29904;51.058;5.378;2023-08-01T01:42:26;3.78;;;2.30;;
44228;SDS011;29904;51.058;5.378;2023-08-01T01:44:52;6.10;;;2.60;;
44228;SDS011;29904;51.058;5.378;2023-08-01T01:47:18;5.38;;;3.28;;
44228;SDS011;29904;51.058;5.378;2023-08-01T01:49:43;6.20;;;3.42;;
44228;SDS011;29904;51.058;5.378;2023-08-01T01:52:09;7.07;;;3.10;;
44228;SDS011;29904;51.058;5.378;2023-08-01T01:54:35;6.32;;;3.60;;
44228;SDS011;29904;51.058;5.378;2023-08-01T01:57:00;6.25;;;3.33;;
44228;SDS011;29904;51.058;5.378;2023-08-01T01:59:26;7.20;;;3.50;;
44228;SDS011;29904;51.058;5.378;2023-08-01T02:01:52;6.10;;;3.38;;
44228;SDS011;29904;51.058;5.378;2023-08-01T02:04:17;5.00;;;3.22;;
44228;SDS011;29904;51.058;5.378;2023-08-01T02:06:44;6.05;;;3.20;;
44228;SDS011;29904;51.058;5.378;2023-08-01T02:09:09;6.65;;;3.20;;
44228;SDS011;29904;51.058;5.378;2023-08-01T02:11:35;5.43;;;2.80;;
44228;SDS011;29904;51.058;5.378;2023-08-01T02:14:01;4.75;;;3.08;;
44228;SDS011;29904;51.058;5.378;2023-08-01T02:16:28;6.70;;;3.50;;
44228;SDS011;29904;51.058;5.378;2023-08-01T02:18:53;5.78;;;3.20;;
44228;SDS011;29904;51.058;5.378;2023-08-01T02:21:19;6.00;;;3.10;;
44228;SDS011;29904;51.058;5.378;2023-08-01T02:23:45;6.07;;;3.00;;
44228;SDS011;29904;51.058;5.378;2023-08-01T02:26:11;5.90;;;3.15;;
44228;SDS011;29904;51.058;5.378;2023-08-01T02:28:36;5.87;;;3.20;;
44228;SDS011;29904;51.058;5.378;2023-08-01T02:31:02;5.33;;;3.37;;
44228;SDS011;29904;51.058;5.378;2023-08-01T02:33:28;7.80;;;4.00;;
44228;SDS011;29904;51.058;5.378;2023-08-01T02:35:53;5.67;;;3.20;;
44228;SDS011;29904;51.058;5.378;2023-08-01T02:38:19;4.43;;;2.97;;
44228;SDS011;29904;51.058;5.378;2023-08-01T02:40:45;6.95;;;2.97;;
44228;SDS011;29904;51.058;5.378;2023-08-01T02:43:10;5.70;;;3.23;;
44228;SDS011;29904;51.058;5.378;2023-08-01T02:45:36;5.22;;;2.92;;
44228;SDS011;29904;51.058;5.378;2023-08-01T02:48:02;4.75;;;2.88;;
44228;SDS011;29904;51.058;5.378;2023-08-01T02:50:27;6.13;;;3.07;;
44228;SDS011;29904;51.058;5.378;2023-08-01T02:52:53;4.78;;;2.80;;
44228;SDS011;29904;51.058;5.378;2023-08-01T02:55:19;7.75;;;3.05;;
44228;SDS011;29904;51.058;5.378;2023-08-01T02:57:45;5.30;;;2.90;;
44228;SDS011;29904;51.058;5.378;2023-08-01T03:00:10;5.73;;;3.13;;
44228;SDS011;29904;51.058;5.378;2023-08-01T03:02:37;6.30;;;3.10;;
44228;SDS011;29904;51.058;5.378;2023-08-01T03:05:05;6.22;;;2.67;;
44228;SDS011;29904;51.058;5.378;2023-08-01T03:07:32;5.20;;;2.85;;
44228;SDS011;29904;51.058;5.378;2023-08-01T03:09:58;6.18;;;2.85;;
44228;SDS011;29904;51.058;5.378;2023-08-01T03:12:24;5.80;;;3.08;;
44228;SDS011;29904;51.058;5.378;2023-08-01T03:14:50;5.30;;;2.73;;
44228;SDS011;29904;51.058;5.378;2023-08-01T03:17:15;6.10;;;3.10;;
44228;SDS011;29904;51.058;5.378;2023-08-01T03:19:41;5.18;;;2.90;;
44228;SDS011;29904;51.058;5.378;2023-08-01T03:22:07;5.20;;;2.92;;
44228;SDS011;29904;51.058;5.378;2023-08-01T03:24:34;6.15;;;3.20;;
44228;SDS011;29904;51.058;5.378;2023-08-01T03:27:00;6.07;;;3.10;;
44228;SDS011;29904;51.058;5.378;2023-08-01T03:29:26;7.82;;;3.20;;
44228;SDS011;29904;51.058;5.378;2023-08-01T03:31:52;6.70;;;3.00;;
44228;SDS011;29904;51.058;5.378;2023-08-01T03:34:18;5.60;;;2.97;;
44228;SDS011;29904;51.058;5.378;2023-08-01T03:36:43;6.10;;;2.90;;
44228;SDS011;29904;51.058;5.378;2023-08-01T03:39:09;5.35;;;2.88;;
44228;SDS011;29904;51.058;5.378;2023-08-01T03:41:35;6.73;;;3.10;;
44228;SDS011;29904;51.058;5.378;2023-08-01T03:44:04;6.15;;;3.53;;
44228;SDS011;29904;51.058;5.378;2023-08-01T03:46:30;4.80;;;3.00;;
44228;SDS011;29904;51.058;5.378;2023-08-01T03:48:55;6.68;;;3.10;;
44228;SDS011;29904;51.058;5.378;2023-08-01T03:51:21;7.40;;;3.30;;
44228;SDS011;29904;51.058;5.378;2023-08-01T03:53:47;5.53;;;3.30;;
44228;SDS011;29904;51.058;5.378;2023-08-01T03:56:13;7.00;;;3.63;;
44228;SDS011;29904;51.058;5.378;2023-08-01T03:58:38;7.50;;;3.80;;
44228;SDS011;29904;51.058;5.378;2023-08-01T04:01:04;6.95;;;3.50;;
44228;SDS011;29904;51.058;5.378;2023-08-01T04:03:31;7.35;;;3.97;;
44228;SDS011;29904;51.058;5.378;2023-08-01T04:05:57;8.35;;;4.00;;
44228;SDS011;29904;51.058;5.378;2023-08-01T04:08:23;8.77;;;4.03;;
44228;SDS011;29904;51.058;5.378;2023-08-01T04:10:49;6.97;;;4.17;;
44228;SDS011;29904;51.058;5.378;2023-08-01T04:13:17;7.10;;;3.95;;
44228;SDS011;29904;51.058;5.378;2023-08-01T04:15:43;8.85;;;4.45;;
44228;SDS011;29904;51.058;5.378;2023-08-01T04:18:09;9.13;;;4.57;;
44228;SDS011;29904;51.058;5.378;2023-08-01T04:20:34;7.63;;;4.00;;
44228;SDS011;29904;51.058;5.378;2023-08-01T04:23:00;6.07;;;3.60;;
44228;SDS011;29904;51.058;5.378;2023-08-01T04:25:26;11.00;;;4.63;;
44228;SDS011;29904;51.058;5.378;2023-08-01T04:27:52;10.03;;;4.03;;
44228;SDS011;29904;51.058;5.378;2023-08-01T04:30:18;8.47;;;3.90;;
44228;SDS011;29904;51.058;5.378;2023-08-01T04:32:44;8.03;;;3.83;;
44228;SDS011;29904;51.058;5.378;2023-08-01T04:35:10;8.55;;;4.20;;
44228;SDS011;29904;51.058;5.378;2023-08-01T04:37:36;7.90;;;4.18;;
44228;SDS011;29904;51.058;5.378;2023-08-01T04:40:01;9.48;;;3.92;;
44228;SDS011;29904;51.058;5.378;2023-08-01T04:42:28;7.72;;;4.13;;
44228;SDS011;29904;51.058;5.378;2023-08-01T04:44:54;8.00;;;3.70;;
44228;SDS011;29904;51.058;5.378;2023-08-01T04:47:20;9.10;;;4.35;;
44228;SDS011;29904;51.058;5.378;2023-08-01T04:49:46;8.90;;;4.27;;
44228;SDS011;29904;51.058;5.378;2023-08-01T04:52:12;9.07;;;4.03;;
44228;SDS011;29904;51.058;5.378;2023-08-01T04:54:38;8.05;;;4.40;;
44228;SDS011;29904;51.058;5.378;2023-08-01T04:57:04;10.65;;;4.20;;
44228;SDS011;29904;51.058;5.378;2023-08-01T04:59:30;8.13;;;4.18;;
44228;SDS011;29904;51.058;5.378;2023-08-01T05:01:55;11.57;;;4.63;;
44228;SDS011;29904;51.058;5.378;2023-08-01T05:04:21;8.77;;;4.30;;
44228;SDS011;29904;51.058;5.378;2023-08-01T05:06:47;9.35;;;4.40;;
44228;SDS011;29904;51.058;5.378;2023-08-01T05:09:12;9.65;;;4.50;;
44228;SDS011;29904;51.058;5.378;2023-08-01T05:11:38;9.60;;;4.15;;
44228;SDS011;29904;51.058;5.378;2023-08-01T05:14:04;10.10;;;4.70;;
44228;SDS011;29904;51.058;5.378;2023-08-01T05:16:30;8.80;;;4.10;;
44228;SDS011;29904;51.058;5.378;2023-08-01T05:18:56;10.00;;;4.70;;
44228;SDS011;29904;51.058;5.378;2023-08-01T05:21:22;10.35;;;4.60;;
44228;SDS011;29904;51.058;5.378;2023-08-01T05:23:47;9.38;;;5.10;;
44228;SDS011;29904;51.058;5.378;2023-08-01T05:26:13;9.07;;;4.65;;
44228;SDS011;29904;51.058;5.378;2023-08-01T05:28:39;7.63;;;4.57;;
44228;SDS011;29904;51.058;5.378;2023-08-01T05:31:05;8.60;;;4.60;;
44228;SDS011;29904;51.058;5.378;2023-08-01T05:33:30;8.57;;;4.78;;
44228;SDS011;29904;51.058;5.378;2023-08-01T05:35:56;10.07;;;5.07;;
44228;SDS011;29904;51.058;5.378;2023-08-01T05:38:22;10.93;;;5.20;;
44228;SDS011;29904;51.058;5.378;2023-08-01T05:40:47;10.95;;;5.10;;
44228;SDS011;29904;51.058;5.378;2023-08-01T05:43:13;9.40;;;4.80;;
44228;SDS011;29904;51.058;5.378;2023-08-01T05:45:39;9.07;;;4.30;;
44228;SDS011;29904;51.058;5.378;2023-08-01T05:48:05;7.38;;;4.68;;
44228;SDS011;29904;51.058;5.378;2023-08-01T05:50:30;8.57;;;4.55;;
44228;SDS011;29904;51.058;5.378;2023-08-01T05:52:56;9.97;;;4.83;;
44228;SDS011;29904;51.058;5.378;2023-08-01T05:55:22;9.00;;;4.57;;
44228;SDS011;29904;51.058;5.378;2023-08-01T05:57:48;9.05;;;4.78;;
44228;SDS011;29904;51.058;5.378;2023-08-01T06:00:17;12.25;;;4.93;;
44228;SDS011;29904;51.058;5.378;2023-08-01T06:02:44;10.55;;;5.00;;
44228;SDS011;29904;51.058;5.378;2023-08-01T06:05:10;10.93;;;5.10;;
44228;SDS011;29904;51.058;5.378;2023-08-01T06:07:37;12.18;;;4.78;;
44228;SDS011;29904;51.058;5.378;2023-08-01T06:10:03;9.43;;;4.60;;
44228;SDS011;29904;51.058;5.378;2023-08-01T06:12:29;12.82;;;4.95;;
44228;SDS011;29904;51.058;5.378;2023-08-01T06:14:55;9.80;;;4.40;;
44228;SDS011;29904;51.058;5.378;2023-08-01T06:17:21;8.03;;;4.50;;
44228;SDS011;29904;51.058;5.378;2023-08-01T06:19:46;12.05;;;4.40;;
44228;SDS011;29904;51.058;5.378;2023-08-01T06:22:12;11.45;;;4.78;;
44228;SDS011;29904;51.058;5.378;2023-08-01T06:24:38;11.57;;;4.72;;
44228;SDS011;29904;51.058;5.378;2023-08-01T06:27:04;10.43;;;4.80;;
44228;SDS011;29904;51.058;5.378;2023-08-01T06:29:30;8.73;;;4.68;;
44228;SDS011;29904;51.058;5.378;2023-08-01T06:31:56;11.40;;;4.63;;
44228;SDS011;29904;51.058;5.378;2023-08-01T06:34:22;8.13;;;4.47;;
44228;SDS011;29904;51.058;5.378;2023-08-01T06:36:48;7.65;;;3.75;;
44228;SDS011;29904;51.058;5.378;2023-08-01T06:39:13;9.13;;;4.30;;
44228;SDS011;29904;51.058;5.378;2023-08-01T06:41:39;8.70;;;4.00;;
44228;SDS011;29904;51.058;5.378;2023-08-01T06:44:05;9.68;;;4.10;;
44228;SDS011;29904;51.058;5.378;2023-08-01T06:46:30;8.45;;;4.10;;
44228;SDS011;29904;51.058;5.378;2023-08-01T06:48:56;6.37;;;3.60;;
44228;SDS011;29904;51.058;5.378;2023-08-01T06:51:22;9.98;;;4.25;;
44228;SDS011;29904;51.058;5.378;2023-08-01T06:53:47;9.73;;;4.20;;
44228;SDS011;29904;51.058;5.378;2023-08-01T06:56:13;8.97;;;4.00;;
44228;SDS011;29904;51.058;5.378;2023-08-01T06:58:39;9.77;;;3.80;;
44228;SDS011;29904;51.058;5.378;2023-08-01T07:01:05;8.27;;;4.10;;
44228;SDS011;29904;51.058;5.378;2023-08-01T07:03:30;9.00;;;3.90;;
44228;SDS011;29904;51.058;5.378;2023-08-01T07:05:56;9.38;;;3.95;;
44228;SDS011;29904;51.058;5.378;2023-08-01T07:08:22;11.18;;;4.43;;
44228;SDS011;29904;51.058;5.378;2023-08-01T07:10:48;10.13;;;3.78;;
44228;SDS011;29904;51.058;5.378;2023-08-01T07:13:14;9.98;;;4.13;;
44228;SDS011;29904;51.058;5.378;2023-08-01T07:15:41;9.35;;;4.05;;
44228;SDS011;29904;51.058;5.378;2023-08-01T07:18:07;8.18;;;3.83;;
44228;SDS011;29904;51.058;5.378;2023-08-01T07:20:33;8.80;;;3.90;;
44228;SDS011;29904;51.058;5.378;2023-08-01T07:22:58;10.77;;;4.37;;
44228;SDS011;29904;51.058;5.378;2023-08-01T07:25:24;7.90;;;3.77;;
44228;SDS011;29904;51.058;5.378;2023-08-01T07:27:50;8.45;;;3.83;;
44228;SDS011;29904;51.058;5.378;2023-08-01T07:30:16;8.20;;;3.58;;
44228;SDS011;29904;51.058;5.378;2023-08-01T07:32:41;7.22;;;3.60;;
44228;SDS011;29904;51.058;5.378;2023-08-01T07:35:08;8.52;;;3.83;;
44228;SDS011;29904;51.058;5.378;2023-08-01T07:37:34;8.75;;;3.97;;
44228;SDS011;29904;51.058;5.378;2023-08-01T07:40:02;8.32;;;3.72;;
44228;SDS011;29904;51.058;5.378;2023-08-01T07:42:30;6.75;;;3.40;;
44228;SDS011;29904;51.058;5.378;2023-08-01T07:44:56;7.30;;;3.60;;
44228;SDS011;29904;51.058;5.378;2023-08-01T07:47:22;8.13;;;3.78;;
44228;SDS011;29904;51.058;5.378;2023-08-01T07:49:49;8.68;;;3.90;;
44228;SDS011;29904;51.058;5.378;2023-08-01T07:52:15;9.13;;;4.35;;
44228;SDS011;29904;51.058;5.378;2023-08-01T07:54:41;7.72;;;3.53;;
44228;SDS011;29904;51.058;5.378;2023-08-01T07:57:07;8.63;;;3.73;;
44228;SDS011;29904;51.058;5.378;2023-08-01T07:59:32;6.03;;;3.00;;
44228;SDS011;29904;51.058;5.378;2023-08-01T08:01:58;8.60;;;3.80;;
44228;SDS011;29904;51.058;5.378;2023-08-01T08:04:24;6.40;;;3.53;;
44228;SDS011;29904;51.058;5.378;2023-08-01T08:06:50;9.23;;;3.80;;
44228;SDS011;29904;51.058;5.378;2023-08-01T08:09:17;7.05;;;3.33;;
44228;SDS011;29904;51.058;5.378;2023-08-01T08:11:42;7.27;;;3.67;;
44228;SDS011;29904;51.058;5.378;2023-08-01T08:14:08;8.73;;;3.90;;
44228;SDS011;29904;51.058;5.378;2023-08-01T08:16:34;7.25;;;3.30;;
44228;SDS011;29904;51.058;5.378;2023-08-01T08:18:59;8.33;;;3.40;;
44228;SDS011;29904;51.058;5.378;2023-08-01T08:21:26;6.28;;;3.20;;
44228;SDS011;29904;51.058;5.378;2023-08-01T08:23:51;6.63;;;2.90;;
44228;SDS011;29904;51.058;5.378;2023-08-01T08:26:17;6.50;;;3.10;;
44228;SDS011;29904;51.058;5.378;2023-08-01T08:28:43;10.48;;;3.72;;
44228;SDS011;29904;51.058;5.378;2023-08-01T08:31:09;6.73;;;3.40;;
44228;SDS011;29904;51.058;5.378;2023-08-01T08:33:34;8.73;;;3.22;;
44228;SDS011;29904;51.058;5.378;2023-08-01T08:36:00;8.25;;;3.13;;
44228;SDS011;29904;51.058;5.378;2023-08-01T08:38:26;6.63;;;3.20;;
44228;SDS011;29904;51.058;5.378;2023-08-01T08:44:17;5.72;;;2.70;;
44228;SDS011;29904;51.058;5.378;2023-08-01T08:46:47;6.28;;;2.90;;
44228;SDS011;29904;51.058;5.378;2023-08-01T08:49:16;6.18;;;2.83;;
44228;SDS011;29904;51.058;5.378;2023-08-01T08:51:45;8.63;;;2.90;;
44228;SDS011;29904;51.058;5.378;2023-08-01T08:54:11;6.55;;;2.80;;
44228;SDS011;29904;51.058;5.378;2023-08-01T08:56:39;6.07;;;2.50;;
44228;SDS011;29904;51.058;5.378;2023-08-01T08:59:06;6.97;;;2.40;;
44228;SDS011;29904;51.058;5.378;2023-08-01T09:01:32;5.38;;;2.60;;
44228;SDS011;29904;51.058;5.378;2023-08-01T09:03:59;5.30;;;2.47;;
44228;SDS011;29904;51.058;5.378;2023-08-01T09:06:27;6.90;;;2.47;;
44228;SDS011;29904;51.058;5.378;2023-08-01T09:08:56;6.32;;;2.30;;
44228;SDS011;29904;51.058;5.378;2023-08-01T09:14:15;5.45;;;2.50;;
44228;SDS011;29904;51.058;5.378;2023-08-01T09:16:42;6.45;;;2.50;;
44228;SDS011;29904;51.058;5.378;2023-08-01T09:19:09;5.77;;;2.30;;
44228;SDS011;29904;51.058;5.378;2023-08-01T09:21:38;7.90;;;2.67;;
44228;SDS011;29904;51.058;5.378;2023-08-01T09:24:08;6.78;;;2.30;;
44228;SDS011;29904;51.058;5.378;2023-08-01T09:26:38;8.77;;;2.35;;
44228;SDS011;29904;51.058;5.378;2023-08-01T09:29:04;4.85;;;2.17;;
44228;SDS011;29904;51.058;5.378;2023-08-01T09:31:34;5.47;;;2.55;;
44228;SDS011;29904;51.058;5.378;2023-08-01T09:34:03;4.53;;;2.10;;
44228;SDS011;29904;51.058;5.378;2023-08-01T09:36:30;5.47;;;1.90;;
44228;SDS011;29904;51.058;5.378;2023-08-01T09:39:03;4.67;;;2.10;;
44228;SDS011;29904;51.058;5.378;2023-08-01T09:41:29;4.47;;;2.05;;
44228;SDS011;29904;51.058;5.378;2023-08-01T09:43:56;5.53;;;2.13;;
44228;SDS011;29904;51.058;5.378;2023-08-01T09:46:23;5.85;;;2.30;;
44228;SDS011;29904;51.058;5.378;2023-08-01T09:48:49;5.57;;;2.30;;
44228;SDS011;29904;51.058;5.378;2023-08-01T09:51:15;4.88;;;2.05;;
44228;SDS011;29904;51.058;5.378;2023-08-01T09:53:56;3.80;;;2.10;;
44228;SDS011;29904;51.058;5.378;2023-08-01T09:56:23;5.07;;;2.27;;
44228;SDS011;29904;51.058;5.378;2023-08-01T09:58:50;5.65;;;2.47;;
44228;SDS011;29904;51.058;5.378;2023-08-01T10:01:17;6.22;;;2.42;;
44228;SDS011;29904;51.058;5.378;2023-08-01T10:03:45;4.25;;;2.38;;
44228;SDS011;29904;51.058;5.378;2023-08-01T10:06:19;4.38;;;2.35;;
44228;SDS011;29904;51.058;5.378;2023-08-01T10:08:50;5.97;;;2.57;;
44228;SDS011;29904;51.058;5.378;2023-08-01T10:11:17;5.70;;;2.35;;
44228;SDS011;29904;51.058;5.378;2023-08-01T10:13:44;6.88;;;2.45;;
44228;SDS011;29904;51.058;5.378;2023-08-01T10:16:11;5.03;;;1.92;;
44228;SDS011;29904;51.058;5.378;2023-08-01T10:18:38;6.88;;;2.28;;
44228;SDS011;29904;51.058;5.378;2023-08-01T10:21:05;4.55;;;2.10;;
44228;SDS011;29904;51.058;5.378;2023-08-01T10:23:35;4.57;;;2.33;;
44228;SDS011;29904;51.058;5.378;2023-08-01T10:26:04;5.00;;;2.13;;
44228;SDS011;29904;51.058;5.378;2023-08-01T10:28:38;4.85;;;2.00;;
44228;SDS011;29904;51.058;5.378;2023-08-01T10:31:15;4.93;;;2.05;;
44228;SDS011;29904;51.058;5.378;2023-08-01T10:33:44;6.75;;;2.05;;
44228;SDS011;29904;51.058;5.378;2023-08-01T10:36:13;5.75;;;2.00;;
44228;SDS011;29904;51.058;5.378;2023-08-01T10:38:49;5.00;;;2.00;;
44228;SDS011;29904;51.058;5.378;2023-08-01T10:41:20;4.22;;;1.92;;
44228;SDS011;29904;51.058;5.378;2023-08-01T10:43:47;6.55;;;2.20;;
44228;SDS011;29904;51.058;5.378;2023-08-01T10:46:13;4.70;;;2.00;;
44228;SDS011;29904;51.058;5.378;2023-08-01T10:48:51;3.87;;;1.70;;
44228;SDS011;29904;51.058;5.378;2023-08-01T10:51:18;4.77;;;1.90;;
44228;SDS011;29904;51.058;5.378;2023-08-01T10:53:44;4.13;;;2.00;;
44228;SDS011;29904;51.058;5.378;2023-08-01T10:56:17;5.90;;;2.00;;
44228;SDS011;29904;51.058;5.378;2023-08-01T10:58:44;4.43;;;1.85;;
44228;SDS011;29904;51.058;5.378;2023-08-01T11:01:10;5.63;;;2.00;;
44228;SDS011;29904;51.058;5.378;2023-08-01T11:03:36;5.10;;;2.10;;
44228;SDS011;29904;51.058;5.378;2023-08-01T11:06:03;3.83;;;1.77;;
44228;SDS011;29904;51.058;5.378;2023-08-01T11:08:35;4.63;;;1.83;;
44228;SDS011;29904;51.058;5.378;2023-08-01T11:11:03;2.50;;;1.48;;
44228;SDS011;29904;51.058;5.378;2023-08-01T11:13:33;3.50;;;1.83;;
44228;SDS011;29904;51.058;5.378;2023-08-01T11:16:03;2.80;;;1.70;;
44228;SDS011;29904;51.058;5.378;2023-08-01T11:18:30;4.70;;;2.20;;
44228;SDS011;29904;51.058;5.378;2023-08-01T11:20:56;5.23;;;2.10;;
44228;SDS011;29904;51.058;5.378;2023-08-01T11:23:28;4.47;;;2.13;;
44228;SDS011;29904;51.058;5.378;2023-08-01T11:25:55;4.07;;;1.80;;
44228;SDS011;29904;51.058;5.378;2023-08-01T11:28:21;4.10;;;1.98;;
44228;SDS011;29904;51.058;5.378;2023-08-01T11:30:48;5.05;;;1.90;;
44228;SDS011;29904;51.058;5.378;2023-08-01T11:33:14;5.75;;;2.25;;
44228;SDS011;29904;51.058;5.378;2023-08-01T11:35:45;4.97;;;2.20;;
44228;SDS011;29904;51.058;5.378;2023-08-01T11:38:14;3.97;;;1.75;;
44228;SDS011;29904;51.058;5.378;2023-08-01T11:40:40;6.03;;;2.05;;
44228;SDS011;29904;51.058;5.378;2023-08-01T11:43:06;3.92;;;1.52;;
44228;SDS011;29904;51.058;5.378;2023-08-01T11:45:32;2.60;;;1.50;;
44228;SDS011;29904;51.058;5.378;2023-08-01T11:47:58;2.60;;;1.50;;
44228;SDS011;29904;51.058;5.378;2023-08-01T11:50:24;3.83;;;1.53;;
44228;SDS011;29904;51.058;5.378;2023-08-01T11:52:51;4.30;;;1.70;;
44228;SDS011;29904;51.058;5.378;2023-08-01T11:55:25;4.47;;;1.35;;
44228;SDS011;29904;51.058;5.378;2023-08-01T11:58:00;3.57;;;1.40;;
44228;SDS011;29904;51.058;5.378;2023-08-01T12:00:27;3.00;;;1.40;;
44228;SDS011;29904;51.058;5.378;2023-08-01T12:03:06;4.30;;;1.70;;
44228;SDS011;29904;51.058;5.378;2023-08-01T12:05:38;4.07;;;1.42;;
44228;SDS011;29904;51.058;5.378;2023-08-01T12:08:10;3.67;;;1.45;;
44228;SDS011;29904;51.058;5.378;2023-08-01T12:10:40;2.97;;;1.20;;
44228;SDS011;29904;51.058;5.378;2023-08-01T12:13:07;3.83;;;1.52;;
44228;SDS011;29904;51.058;5.378;2023-08-01T12:15:49;3.83;;;1.58;;
44228;SDS011;29904;51.058;5.378;2023-08-01T12:18:24;4.75;;;1.77;;
44228;SDS011;29904;51.058;5.378;2023-08-01T12:20:51;2.88;;;1.40;;
44228;SDS011;29904;51.058;5.378;2023-08-01T12:23:18;4.40;;;1.50;;
44228;SDS011;29904;51.058;5.378;2023-08-01T12:25:44;2.90;;;1.50;;
44228;SDS011;29904;51.058;5.378;2023-08-01T12:28:11;3.88;;;1.40;;
44228;SDS011;29904;51.058;5.378;2023-08-01T12:30:41;4.45;;;1.70;;
44228;SDS011;29904;51.058;5.378;2023-08-01T12:33:08;3.95;;;1.40;;
44228;SDS011;29904;51.058;5.378;2023-08-01T12:35:38;3.35;;;1.60;;
44228;SDS011;29904;51.058;5.378;2023-08-01T12:38:04;3.38;;;1.50;;
44228;SDS011;29904;51.058;5.378;2023-08-01T12:40:30;3.17;;;1.40;;
44228;SDS011;29904;51.058;5.378;2023-08-01T12:42:55;4.82;;;1.42;;
44228;SDS011;29904;51.058;5.378;2023-08-01T12:45:21;4.57;;;1.57;;
44228;SDS011;29904;51.058;5.378;2023-08-01T12:47:48;3.50;;;1.30;;
44228;SDS011;29904;51.058;5.378;2023-08-01T12:50:14;2.58;;;1.10;;
44228;SDS011;29904;51.058;5.378;2023-08-01T12:52:40;3.25;;;1.30;;
44228;SDS011;29904;51.058;5.378;2023-08-01T12:55:06;2.67;;;1.20;;
44228;SDS011;29904;51.058;5.378;2023-08-01T12:57:32;3.53;;;1.10;;
44228;SDS011;29904;51.058;5.378;2023-08-01T12:59:58;3.70;;;1.20;;
44228;SDS011;29904;51.058;5.378;2023-08-01T13:02:24;4.43;;;1.30;;
44228;SDS011;29904;51.058;5.378;2023-08-01T13:04:49;3.07;;;1.10;;
44228;SDS011;29904;51.058;5.378;2023-08-01T13:07:15;2.30;;;1.10;;
44228;SDS011;29904;51.058;5.378;2023-08-01T13:09:41;2.70;;;1.00;;
44228;SDS011;29904;51.058;5.378;2023-08-01T13:12:07;4.30;;;1.55;;
44228;SDS011;29904;51.058;5.378;2023-08-01T13:14:33;3.53;;;1.38;;
44228;SDS011;29904;51.058;5.378;2023-08-01T13:16:59;2.67;;;1.33;;
44228;SDS011;29904;51.058;5.378;2023-08-01T13:19:25;5.27;;;1.20;;
44228;SDS011;29904;51.058;5.378;2023-08-01T13:21:51;3.55;;;1.45;;
44228;SDS011;29904;51.058;5.378;2023-08-01T13:24:16;4.78;;;1.17;;
44228;SDS011;29904;51.058;5.378;2023-08-01T13:26:42;3.93;;;1.27;;
44228;SDS011;29904;51.058;5.378;2023-08-01T13:29:08;4.03;;;1.30;;
44228;SDS011;29904;51.058;5.378;2023-08-01T13:31:33;4.67;;;1.20;;
44228;SDS011;29904;51.058;5.378;2023-08-01T13:33:59;2.78;;;1.00;;
44228;SDS011;29904;51.058;5.378;2023-08-01T13:36:25;3.87;;;1.10;;
44228;SDS011;29904;51.058;5.378;2023-08-01T13:38:51;3.05;;;1.00;;
44228;SDS011;29904;51.058;5.378;2023-08-01T13:41:16;3.27;;;0.90;;
44228;SDS011;29904;51.058;5.378;2023-08-01T13:43:42;2.95;;;1.05;;
44228;SDS011;29904;51.058;5.378;2023-08-01T13:46:15;3.83;;;1.00;;
44228;SDS011;29904;51.058;5.378;2023-08-01T13:48:42;1.95;;;0.75;;
44228;SDS011;29904;51.058;5.378;2023-08-01T13:51:11;2.95;;;1.10;;
44228;SDS011;29904;51.058;5.378;2023-08-01T13:53:38;2.75;;;0.90;;
44228;SDS011;29904;51.058;5.378;2023-08-01T13:56:08;2.78;;;1.00;;
44228;SDS011;29904;51.058;5.378;2023-08-01T13:58:34;3.25;;;1.17;;
44228;SDS011;29904;51.058;5.378;2023-08-01T14:01:03;3.58;;;0.80;;
44228;SDS011;29904;51.058;5.378;2023-08-01T14:03:30;3.72;;;1.00;;
44228;SDS011;29904;51.058;5.378;2023-08-01T14:06:02;2.20;;;0.90;;
44228;SDS011;29904;51.058;5.378;2023-08-01T14:08:32;2.92;;;0.82;;
44228;SDS011;29904;51.058;5.378;2023-08-01T14:10:58;2.08;;;0.80;;
44228;SDS011;29904;51.058;5.378;2023-08-01T14:13:24;2.65;;;0.80;;
44228;SDS011;29904;51.058;5.378;2023-08-01T14:15:50;2.93;;;0.80;;
44228;SDS011;29904;51.058;5.378;2023-08-01T14:18:16;2.13;;;0.87;;
44228;SDS011;29904;51.058;5.378;2023-08-01T14:20:42;2.20;;;0.90;;
44228;SDS011;29904;51.058;5.378;2023-08-01T14:23:08;2.63;;;0.90;;
44228;SDS011;29904;51.058;5.378;2023-08-01T14:25:34;2.58;;;0.90;;
44228;SDS011;29904;51.058;5.378;2023-08-01T14:27:59;2.92;;;0.80;;
44228;SDS011;29904;51.058;5.378;2023-08-01T14:30:26;2.05;;;0.70;;
44228;SDS011;29904;51.058;5.378;2023-08-01T14:32:58;2.75;;;0.70;;
44228;SDS011;29904;51.058;5.378;2023-08-01T14:35:37;3.40;;;0.80;;
44228;SDS011;29904;51.058;5.378;2023-08-01T14:38:03;2.33;;;0.70;;
44228;SDS011;29904;51.058;5.378;2023-08-01T14:40:29;3.03;;;0.80;;
44228;SDS011;29904;51.058;5.378;2023-08-01T14:42:55;2.72;;;0.90;;
44228;SDS011;29904;51.058;5.378;2023-08-01T14:45:22;3.23;;;0.67;;
44228;SDS011;29904;51.058;5.378;2023-08-01T14:47:48;2.60;;;0.85;;
44228;SDS011;29904;51.058;5.378;2023-08-01T14:50:14;4.78;;;0.80;;
44228;SDS011;29904;51.058;5.378;2023-08-01T14:52:40;3.40;;;0.90;;